Aérodrome :
LOGIN :

S'inscrire | Disclaimer

   EN    FR    IT 

 










Légende :    VFR   VFR Marginal   IFR   IFR Intensif   IFR Très Intensif
Visi : 
Plafond : 
>= 8 km
>= 3000ft
5 à 8 km
1000 à 3000 ft
1500m à 5 km
500 à 1000 ft
800 à 1500m
200 à 500 ft
< 800m
< 200 ft
Symboles :   Orages  Brouillard  Fortes neiges  Fortes précipitations  Vent > 20 kt
SIGMETs :   Divers  Orages  Givrage  Turbulence  Onde Orograph.  Cendres Volcan.







- Altitude de l'aérodrome : 287 ft
- Voir les cartes d'approche


LFRL - Lanveoc Poulmic

DERNIER METAR :
  • 230900Z AUTO 20011KT 5000 -RA BR BKN007/// BKN012/// BKN022/// ///TCU 15/14 Q1012 BECMG 19015G25KT RA BKN005 BKN070 OVC180

METARs EXPIRÉS :
  • 230830Z AUTO 20012KT 9000 -RA FEW013/// BKN045/// OVC092/// ///CB 15/13 Q1012 BECMG 19015G25KT 4000 RA BKN005 BKN070 OVC180
  • 230800Z AUTO 21016G27KT 9999 -RA SCT008/// BKN013/// BKN022/// ///TCU 15/14 Q1012 BECMG 4000 RA BKN005 BKN070 OVC180
  • 230730Z AUTO 20010KT 6000 -RA BKN009/// OVC016/// ///TCU 15/14 Q1011 BECMG 19015G25KT 4000 RA BKN005 BKN070 OVC180
  • 230700Z AUTO 19009KT 9999 -RA FEW018 BKN060 BKN074 15/14 Q1011 TEMPO BKN010TCU BECMG 19015G25KT 4000 RA
  • 230630Z AUTO 21008KT 9999 FEW013 SCT021 BKN062 15/14 Q1012 TEMPO BKN010TCU BECMG 19015G25KT 4000 RA

TAF TAF LFRL
Valide du 23 à 06h jusqu'au 24 à 06h UTC


230500Z 2306/2406 18010KT 9999 BKN005 BKN070 OVC180
TEMPO 2306/2309 SHRA BKN010TCU
BECMG 2306/2309 19015G25KT 4000 RA
BECMG 2312/2315 19025G35KT 2000 -RADZ BKN004
TEMPO 2315/2406 BKN002
PROB30
TEMPO 2400/2406 +RA BKN010CB
Pas de NOTAMs connus pour ce terrain.



MET'MAP, la Météo Aéronautique d'un coup d'oeil ! - Copyright ORBIFLY Décembre 2007 - Disclaimer

ORBIFLY MET'MAP TEAM :

Programmation & Développement : Alexandra Zaïnal
Conception & Développement : Baudouin d'Aumeries
Co-Programmation & Développement : Marc-Olivier Méhu
Soutien technique & logistique : Manuel Goepfert

Contact : metmap@orbifly.com




SOURCES & CREDITS :

   NOAA